Time;durP1;ratioP1;P1;durP2;ratioP2;P2;SDS_P1;SDS_P2;PMS_P1;PMS_P2;Temp;Humidity;BMP_temperature;BMP_pressure;BME280_temperature;BME280_humidity;BME280_pressure;Samples;Min_cycle;Max_cycle;Signal;HPM_P1;HPM_P2
2023/03/01 00:08:27;;;;;;;;;;;;;;;2.31;82.14;103433.31;20777094;28;19929;-57
2023/03/01 00:18:50;;;;;;;;;;;;;;;2.27;82.61;103422.03;20757671;28;20356;-57
2023/03/01 00:29:11;;;;;;;;;;;;;;;2.14;82.73;103399.34;20768781;28;19925;-57
2023/03/01 00:39:33;;;;;;;;;;;;;;;2.15;83.04;103408.72;20778249;28;19980;-58
2023/03/01 00:49:54;;;;;;;;;;;;;;;2.05;82.95;103402.31;20773436;28;20468;-57
2023/03/01 01:00:16;;;;;;;;;;;;;;;2.07;82.69;103406.63;20775335;28;19965;-58
2023/03/01 01:10:37;;;;;;;;;;;;;;;1.98;83.27;103391.75;20775717;28;20348;-58
2023/03/01 01:21:03;;;;;;;;;;;;;;;1.95;83.44;103382.28;20773550;28;19952;-58
2023/03/01 01:31:25;;;;;;;;;;;;;;;1.89;83.07;103381.13;20775733;28;19925;-58
2023/03/01 01:41:47;;;;;;;;;;;;;;;1.85;83.36;103369.03;20774043;28;20424;-58
2023/03/01 01:52:17;;;;;;;;;;;;;;;1.79;83.94;103354.31;20791223;28;19937;-58
2023/03/01 02:02:40;;;;;;;;;;;;;;;1.69;83.81;103335.94;20779229;28;19933;-57
2023/03/01 02:13:02;;;;;;;;;;;;;;;1.68;83.83;103329.09;20808403;28;19931;-58
2023/03/01 02:23:25;;;;;;;;;;;;;;;1.59;83.12;103315.94;20782740;28;19926;-57
2023/03/01 02:33:48;;;;;;;;;;;;;;;1.59;83.20;103318.47;20787600;28;19929;-58
2023/03/01 02:44:09;;;;;;;;;;;;;;;1.61;84.27;103321.97;20800964;28;19933;-57
2023/03/01 02:54:43;;;;;;;;;;;;;;;1.54;83.47;103327.59;20801028;28;19979;-57
2023/03/01 03:05:05;;;;;;;;;;;;;;;1.44;82.38;103330.50;20785945;28;19964;-57
2023/03/01 03:15:28;;;;;;;;;;;;;;;1.37;82.47;103324.25;20765593;28;19926;-58
2023/03/01 03:25:50;;;;;;;;;;;;;;;1.30;82.29;103318.78;20790308;28;19929;-57
2023/03/01 03:36:17;;;;;;;;;;;;;;;1.21;83.14;103308.16;20793907;28;19932;-57
2023/03/01 03:46:38;;;;;;;;;;;;;;;1.19;82.34;103289.34;20782806;28;19933;-57
2023/03/01 03:57:00;;;;;;;;;;;;;;;1.14;83.34;103290.78;20793496;28;19983;-58
2023/03/01 04:07:21;;;;;;;;;;;;;;;1.17;83.54;103286.75;20771727;28;20348;-58
2023/03/01 04:17:44;;;;;;;;;;;;;;;1.13;83.03;103268.66;20782281;28;20292;-57
2023/03/01 04:28:06;;;;;;;;;;;;;;;1.10;83.15;103278.72;20782853;28;19926;-58
2023/03/01 04:38:27;;;;;;;;;;;;;;;1.02;82.98;103266.50;20777086;28;19936;-57
2023/03/01 04:48:49;;;;;;;;;;;;;;;0.95;83.05;103269.50;20785243;28;20347;-59
2023/03/01 04:59:12;;;;;;;;;;;;;;;0.82;82.72;103262.06;20785820;28;19925;-57
2023/03/01 05:09:33;;;;;;;;;;;;;;;0.81;83.61;103262.88;20781583;28;19929;-57
2023/03/01 05:19:55;;;;;;;;;;;;;;;0.78;83.83;103250.00;20793379;28;19929;-57
2023/03/01 05:30:17;;;;;;;;;;;;;;;0.71;83.02;103242.88;20774842;28;19983;-58
2023/03/01 05:40:39;;;;;;;;;;;;;;;0.62;82.87;103239.84;20790837;28;19929;-57
2023/03/01 05:51:00;;;;;;;;;;;;;;;0.59;83.13;103241.38;20799020;28;19983;-57
2023/03/01 06:01:21;;;;;;;;;;;;;;;0.58;82.84;103239.63;20771330;28;19925;-58
2023/03/01 06:11:43;;;;;;;;;;;;;;;0.59;82.87;103247.34;20774423;28;19933;-57
2023/03/01 06:22:05;;;;;;;;;;;;;;;0.61;83.84;103252.50;20764166;28;20003;-58
2023/03/01 06:32:26;;;;;;;;;;;;;;;0.54;83.23;103253.00;20788196;28;20032;-57
2023/03/01 06:42:49;;;;;;;;;;;;;;;0.56;83.10;103262.50;20798329;28;19926;-58
2023/03/01 06:53:10;;;;;;;;;;;;;;;0.60;83.39;103259.31;20785544;28;19929;-57
2023/03/01 07:03:32;;;;;;;;;;;;;;;0.65;83.59;103273.13;20777403;28;20347;-57
2023/03/01 07:13:53;;;;;;;;;;;;;;;0.68;84.95;103268.19;20796199;28;19933;-58
2023/03/01 07:24:15;;;;;;;;;;;;;;;0.82;84.75;103285.00;20791693;28;20280;-58
2023/03/01 07:34:36;;;;;;;;;;;;;;;0.97;85.91;103288.31;20782708;28;19960;-57
2023/03/01 07:44:58;;;;;;;;;;;;;;;1.17;84.99;103285.84;20778322;28;19932;-59
2023/03/01 07:55:20;;;;;;;;;;;;;;;1.46;84.54;103276.22;20791584;28;19952;-57
2023/03/01 08:05:41;;;;;;;;;;;;;;;1.65;83.66;103277.91;20779850;28;19933;-57
2023/03/01 08:16:03;;;;;;;;;;;;;;;1.84;83.14;103266.06;20787297;28;19929;-58
2023/03/01 08:26:25;;;;;;;;;;;;;;;1.97;83.32;103249.63;20779277;28;19980;-57
2023/03/01 08:36:46;;;;;;;;;;;;;;;1.97;82.73;103247.06;20777248;28;19949;-57
2023/03/01 08:47:08;;;;;;;;;;;;;;;2.13;80.84;103239.25;20777202;28;20380;-58
2023/03/01 08:57:29;;;;;;;;;;;;;;;2.33;81.48;103229.88;20783787;28;20296;-57
2023/03/01 09:07:50;;;;;;;;;;;;;;;2.54;80.19;103234.22;20794612;28;19936;-57
2023/03/01 09:18:12;;;;;;;;;;;;;;;2.78;79.60;103230.09;20776222;28;19925;-57
2023/03/01 09:28:33;;;;;;;;;;;;;;;3.02;79.11;103225.97;20753606;28;19972;-57
2023/03/01 09:38:55;;;;;;;;;;;;;;;3.23;78.33;103232.72;20779973;28;20384;-57
2023/03/01 09:49:25;;;;;;;;;;;;;;;3.42;77.22;103224.94;20772399;28;19925;-59
2023/03/01 10:00:00;;;;;;;;;;;;;;;3.62;73.74;103213.75;20787847;28;19929;-58
2023/03/01 10:10:33;;;;;;;;;;;;;;;3.87;73.38;103218.94;20789146;28;19956;-59
2023/03/01 10:21:15;;;;;;;;;;;;;;;4.02;73.30;103199.88;20788515;28;19925;-59
2023/03/01 10:31:43;;;;;;;;;;;;;;;4.25;71.36;103203.22;20789902;28;19925;-58
2023/03/01 10:42:05;;;;;;;;;;;;;;;4.43;71.52;103198.69;20766844;28;19925;-56
2023/03/01 10:52:29;;;;;;;;;;;;;;;4.63;71.16;103192.53;20793165;28;19925;-58
2023/03/01 11:03:02;;;;;;;;;;;;;;;4.87;71.59;103188.19;20778305;28;19987;-56
2023/03/01 11:13:23;;;;;;;;;;;;;;;5.03;72.08;103185.28;20778520;28;19936;-57
2023/03/01 11:23:46;;;;;;;;;;;;;;;5.21;72.53;103178.97;20779501;28;19933;-57
2023/03/01 11:34:11;;;;;;;;;;;;;;;5.38;71.46;103172.63;20781026;28;19925;-56
2023/03/01 11:44:35;;;;;;;;;;;;;;;5.51;73.05;103149.06;20773618;28;19933;-57
2023/03/01 11:54:56;;;;;;;;;;;;;;;5.66;72.54;103140.06;20774290;28;19964;-57
2023/03/01 12:05:30;;;;;;;;;;;;;;;5.78;72.75;103149.81;20768686;28;19925;-57
2023/03/01 12:15:54;;;;;;;;;;;;;;;5.87;73.23;103142.38;20775956;28;19963;-57
2023/03/01 12:26:31;;;;;;;;;;;;;;;6.06;73.84;103124.91;20789004;28;19925;-57
2023/03/01 12:36:52;;;;;;;;;;;;;;;6.16;74.24;103118.28;20777006;28;19936;-57
2023/03/01 12:47:14;;;;;;;;;;;;;;;6.34;73.88;103092.16;20775510;28;19929;-59
2023/03/01 12:57:43;;;;;;;;;;;;;;;6.38;73.50;103087.13;20785563;28;19933;-58
2023/03/01 13:08:05;;;;;;;;;;;;;;;6.47;73.65;103074.50;20762806;28;19925;-57
2023/03/01 13:18:28;;;;;;;;;;;;;;;6.58;73.16;103062.75;20780016;28;19925;-57
2023/03/01 13:28:49;;;;;;;;;;;;;;;6.77;74.32;103043.44;20773843;28;19925;-57
2023/03/01 13:39:31;;;;;;;;;;;;;;;6.91;73.84;103027.44;20804975;28;20012;-57
2023/03/01 13:49:57;;;;;;;;;;;;;;;7.05;73.02;103025.13;20809972;28;19986;-58
2023/03/01 14:00:29;;;;;;;;;;;;;;;7.06;74.31;103017.47;20811034;28;19925;-57
2023/03/01 14:11:11;;;;;;;;;;;;;;;7.09;73.70;102989.19;20819049;28;20031;-58
2023/03/01 14:21:32;;;;;;;;;;;;;;;7.20;73.82;102973.09;20784046;28;19933;-57
2023/03/01 14:31:54;;;;;;;;;;;;;;;7.25;73.27;102961.16;20807683;28;20372;-57
2023/03/01 14:42:16;;;;;;;;;;;;;;;7.37;74.15;102951.06;20806751;28;19964;-58
2023/03/01 14:52:38;;;;;;;;;;;;;;;7.46;73.48;102940.94;20784569;28;19984;-57
2023/03/01 15:03:09;;;;;;;;;;;;;;;7.45;74.84;102934.94;20773484;28;20717;-59
2023/03/01 15:13:32;;;;;;;;;;;;;;;7.53;74.57;102922.16;20781798;28;19933;-58
2023/03/01 15:23:57;;;;;;;;;;;;;;;7.55;75.34;102915.31;20780236;28;20327;-59
2023/03/01 15:34:23;;;;;;;;;;;;;;;7.59;74.30;102896.50;20788450;28;19933;-57
2023/03/01 15:44:45;;;;;;;;;;;;;;;7.60;75.35;102893.09;20767175;28;19929;-57
2023/03/01 15:55:15;;;;;;;;;;;;;;;7.66;75.23;102882.88;20784827;28;19971;-59
2023/03/01 16:05:37;;;;;;;;;;;;;;;7.88;74.99;102878.06;20762360;28;19929;-58
2023/03/01 16:15:58;;;;;;;;;;;;;;;7.63;75.01;102873.41;20760161;28;19929;-58
2023/03/01 16:26:20;;;;;;;;;;;;;;;7.51;75.38;102883.50;20776932;28;19925;-57
2023/03/01 16:36:42;;;;;;;;;;;;;;;7.40;75.43;102871.31;20773840;28;19960;-57
2023/03/01 16:47:03;;;;;;;;;;;;;;;7.29;76.37;102885.72;20754048;28;19925;-58
2023/03/01 16:57:25;;;;;;;;;;;;;;;7.07;77.64;102893.06;20759328;28;19971;-57
2023/03/01 17:07:46;;;;;;;;;;;;;;;6.85;79.62;102883.22;20759571;28;20315;-58
2023/03/01 17:18:08;;;;;;;;;;;;;;;6.56;82.28;102904.09;20767152;28;19929;-57
2023/03/01 17:28:32;;;;;;;;;;;;;;;6.30;83.11;102915.56;20756805;28;19960;-57
2023/03/01 17:38:53;;;;;;;;;;;;;;;6.10;84.52;102918.56;20742352;28;19936;-58
2023/03/01 17:49:16;;;;;;;;;;;;;;;5.92;84.03;102932.69;20754842;28;19925;-58
2023/03/01 17:59:38;;;;;;;;;;;;;;;5.67;84.48;102950.91;20762566;28;19995;-57
2023/03/01 18:09:59;;;;;;;;;;;;;;;5.48;85.36;102958.97;20758366;28;19925;-58
2023/03/01 18:20:20;;;;;;;;;;;;;;;5.25;86.39;102967.78;20766132;28;19925;-58
2023/03/01 18:30:42;;;;;;;;;;;;;;;5.14;87.37;102964.94;20748768;28;19933;-57
2023/03/01 18:41:03;;;;;;;;;;;;;;;5.06;88.04;102975.00;20806267;28;19933;-58
2023/03/01 18:51:26;;;;;;;;;;;;;;;5.03;87.64;102974.06;20781736;28;20003;-58
2023/03/01 19:01:48;;;;;;;;;;;;;;;4.93;88.74;102972.94;20773146;28;20492;-57
2023/03/01 19:12:09;;;;;;;;;;;;;;;4.87;89.04;102971.91;20775983;28;19925;-57
2023/03/01 19:22:30;;;;;;;;;;;;;;;4.80;89.04;102986.25;20782872;28;20320;-57
2023/03/01 19:32:52;;;;;;;;;;;;;;;4.54;88.87;102982.03;20782573;28;20499;-57
2023/03/01 19:43:14;;;;;;;;;;;;;;;4.53;89.72;102984.56;20773391;28;19933;-57
2023/03/01 19:53:36;;;;;;;;;;;;;;;4.53;89.11;102982.00;20774747;28;20477;-57
2023/03/01 20:03:58;;;;;;;;;;;;;;;4.52;89.31;102988.84;20772576;28;19937;-59
2023/03/01 20:14:19;;;;;;;;;;;;;;;4.50;87.97;102990.50;20791277;28;19956;-57
2023/03/01 20:24:44;;;;;;;;;;;;;;;4.50;88.40;102980.25;20772578;28;19925;-58
2023/03/01 20:35:06;;;;;;;;;;;;;;;4.36;87.78;102985.78;20754983;28;19926;-57
2023/03/01 20:45:27;;;;;;;;;;;;;;;4.25;87.82;102993.13;20764093;28;19925;-58
2023/03/01 20:55:49;;;;;;;;;;;;;;;4.17;87.25;103004.84;20774240;28;19979;-57
2023/03/01 21:06:10;;;;;;;;;;;;;;;4.09;87.57;102996.91;20784126;28;19973;-57
2023/03/01 21:16:32;;;;;;;;;;;;;;;4.04;88.03;102997.59;20786312;28;19929;-57
2023/03/01 21:26:54;;;;;;;;;;;;;;;4.08;87.94;102994.31;20767840;28;19961;-57
2023/03/01 21:37:16;;;;;;;;;;;;;;;4.05;87.86;102989.06;20765648;28;19929;-57
2023/03/01 21:47:39;;;;;;;;;;;;;;;3.86;88.08;102994.47;20768424;28;19928;-59
2023/03/01 21:58:00;;;;;;;;;;;;;;;3.81;88.54;102985.72;20751251;28;19998;-58
2023/03/01 22:08:21;;;;;;;;;;;;;;;3.78;89.04;102985.66;20779500;28;20422;-57
2023/03/01 22:18:43;;;;;;;;;;;;;;;3.85;88.36;102969.66;20765988;28;19925;-57
2023/03/01 22:29:09;;;;;;;;;;;;;;;3.83;89.07;102972.19;20781507;28;19928;-57
2023/03/01 22:39:31;;;;;;;;;;;;;;;3.77;89.00;102966.00;20794291;28;19929;-57
2023/03/01 22:49:55;;;;;;;;;;;;;;;3.72;89.60;102967.53;20788634;28;19979;-59
2023/03/01 23:00:18;;;;;;;;;;;;;;;3.72;89.92;102970.06;20776217;28;20322;-59
2023/03/01 23:10:40;;;;;;;;;;;;;;;3.74;89.78;102981.25;20773250;28;19979;-58
2023/03/01 23:21:09;;;;;;;;;;;;;;;3.68;90.05;102983.63;20793126;28;20504;-58
2023/03/01 23:31:30;;;;;;;;;;;;;;;3.65;90.00;102980.94;20800532;28;19952;-57
2023/03/01 23:41:52;;;;;;;;;;;;;;;3.62;90.58;102968.06;20767037;28;20023;-57
2023/03/01 23:52:16;;;;;;;;;;;;;;;3.61;90.35;102958.63;20786809;28;19929;-58
